Time;durP1;ratioP1;P1;durP2;ratioP2;P2;SDS_P1;SDS_P2;PMS_P1;PMS_P2;Temp;Humidity;BMP_temperature;BMP_pressure;BME280_temperature;BME280_humidity;BME280_pressure;Samples;Min_cycle;Max_cycle;Signal;HPM_P1;HPM_P2
2023/11/28 00:00:14;;;;;;;8.75;6.15;;;2.10;99.90;;;;;;5057060;28;20079;-72
2023/11/28 00:02:39;;;;;;;6.57;5.53;;;2.10;99.90;;;;;;5066685;28;20048;-72
2023/11/28 00:05:06;;;;;;;8.40;5.68;;;2.10;99.90;;;;;;5072950;28;20110;-72
2023/11/28 00:07:33;;;;;;;8.60;5.32;;;2.00;99.90;;;;;;5064232;28;20064;-72
2023/11/28 00:09:59;;;;;;;7.68;4.93;;;2.10;99.90;;;;;;5074788;28;20052;-73
2023/11/28 00:12:26;;;;;;;6.10;4.03;;;2.00;99.90;;;;;;5052379;28;20075;-72
2023/11/28 00:14:52;;;;;;;6.35;4.13;;;2.00;99.90;;;;;;5086955;28;20474;-72
2023/11/28 00:17:18;;;;;;;5.20;4.05;;;1.90;99.90;;;;;;5069303;28;20044;-72
2023/11/28 00:19:44;;;;;;;5.25;3.83;;;1.80;99.90;;;;;;5058093;28;20044;-72
2023/11/28 00:22:09;;;;;;;5.13;3.55;;;1.80;99.90;;;;;;5050728;28;20076;-72
2023/11/28 00:24:35;;;;;;;4.35;3.30;;;1.70;99.90;;;;;;5053800;28;20036;-72
2023/11/28 00:27:01;;;;;;;4.18;3.17;;;1.60;99.90;;;;;;5058865;28;20044;-72
2023/11/28 00:29:27;;;;;;;4.85;3.28;;;1.60;99.90;;;;;;5061675;28;20499;-72
2023/11/28 00:31:52;;;;;;;4.10;3.20;;;1.50;99.90;;;;;;5080185;28;20131;-72
2023/11/28 00:34:18;;;;;;;5.03;3.20;;;1.50;99.90;;;;;;5077555;28;20050;-72
2023/11/28 00:36:44;;;;;;;5.60;2.47;;;1.50;99.90;;;;;;5086624;28;20067;-74
2023/11/28 00:39:11;;;;;;;5.10;3.13;;;1.40;99.90;;;;;;5077665;28;20040;-72
2023/11/28 00:41:37;;;;;;;5.72;2.85;;;1.40;99.90;;;;;;5066070;28;20047;-73
2023/11/28 00:44:02;;;;;;;4.65;2.80;;;1.40;99.90;;;;;;5078063;28;20048;-72
2023/11/28 00:46:28;;;;;;;5.05;2.70;;;1.40;99.90;;;;;;5071977;28;20122;-72
2023/11/28 00:48:54;;;;;;;6.20;2.67;;;1.30;99.90;;;;;;5074219;28;20052;-72
2023/11/28 00:51:20;;;;;;;5.93;2.83;;;1.40;99.90;;;;;;5070245;28;20040;-72
2023/11/28 00:53:46;;;;;;;3.78;2.67;;;1.30;99.90;;;;;;5074145;28;20098;-72
2023/11/28 00:56:19;;;;;;;3.75;2.22;;;1.30;99.90;;;;;;5078484;28;20517;-72
2023/11/28 00:58:46;;;;;;;4.68;2.50;;;1.30;99.90;;;;;;5082609;28;20036;-72
2023/11/28 01:01:13;;;;;;;3.88;2.38;;;1.30;99.90;;;;;;5068124;28;20173;-71
2023/11/28 01:03:39;;;;;;;3.70;2.28;;;1.20;99.90;;;;;;5071060;28;20475;-72
2023/11/28 01:06:06;;;;;;;3.30;2.22;;;1.20;99.90;;;;;;5078141;28;20048;-72
2023/11/28 01:08:32;;;;;;;2.80;2.00;;;1.30;99.90;;;;;;5051967;28;20090;-72
2023/11/28 01:10:58;;;;;;;3.67;1.88;;;1.30;99.90;;;;;;5065692;28;20052;-72
2023/11/28 01:13:23;;;;;;;3.22;1.85;;;1.30;99.90;;;;;;5067105;28;20080;-72
2023/11/28 01:15:49;;;;;;;2.85;1.60;;;1.30;99.90;;;;;;5068890;28;20119;-72
2023/11/28 01:18:15;;;;;;;3.30;1.48;;;1.30;99.90;;;;;;5071878;28;20047;-72
2023/11/28 01:20:42;;;;;;;2.63;1.58;;;1.30;99.90;;;;;;5072432;28;20465;-73
2023/11/28 01:23:09;;;;;;;2.63;1.30;;;1.30;99.90;;;;;;5072729;28;20469;-72
2023/11/28 01:25:34;;;;;;;2.78;1.60;;;1.30;99.90;;;;;;5058544;28;20036;-72
2023/11/28 01:28:01;;;;;;;3.17;1.30;;;1.30;99.90;;;;;;5078576;28;20113;-74
2023/11/28 01:30:27;;;;;;;2.72;1.45;;;1.20;99.90;;;;;;5059939;28;20103;-71
2023/11/28 01:32:52;;;;;;;2.58;1.40;;;1.30;99.90;;;;;;5067786;28;20126;-71
2023/11/28 01:35:18;;;;;;;2.47;1.27;;;1.30;99.90;;;;;;5069143;28;20413;-70
2023/11/28 01:37:44;;;;;;;3.10;1.58;;;1.20;99.90;;;;;;5074324;28;20117;-71
2023/11/28 01:40:10;;;;;;;3.78;1.50;;;1.20;99.90;;;;;;5072314;28;20056;-72
2023/11/28 01:42:36;;;;;;;2.95;1.75;;;1.30;99.90;;;;;;5057817;28;20475;-71
2023/11/28 01:45:02;;;;;;;4.95;2.00;;;1.30;99.90;;;;;;5066431;28;20050;-70
2023/11/28 01:47:28;;;;;;;3.28;2.20;;;1.30;99.90;;;;;;5072245;28;20518;-71
2023/11/28 01:49:54;;;;;;;3.53;2.22;;;1.30;99.90;;;;;;5076075;28;20340;-72
2023/11/28 01:52:21;;;;;;;4.43;2.50;;;1.30;99.90;;;;;;5071690;28;20530;-72
2023/11/28 01:54:47;;;;;;;4.47;2.30;;;1.30;99.90;;;;;;5051573;28;20040;-72
2023/11/28 01:57:13;;;;;;;3.72;2.55;;;1.40;99.90;;;;;;5072140;28;20127;-72
2023/11/28 01:59:42;;;;;;;4.32;2.72;;;1.40;99.90;;;;;;5077816;28;20120;-72
2023/11/28 02:02:08;;;;;;;4.63;2.60;;;1.30;99.90;;;;;;5059865;28;20509;-72
2023/11/28 02:04:34;;;;;;;4.00;2.80;;;1.40;99.90;;;;;;5070656;28;20048;-72
2023/11/28 02:07:00;;;;;;;4.35;2.45;;;1.40;99.90;;;;;;5057872;28;20156;-72
2023/11/28 02:09:27;;;;;;;4.57;2.45;;;1.40;99.90;;;;;;5067774;28;20562;-72
2023/11/28 02:11:52;;;;;;;3.60;2.50;;;1.40;99.90;;;;;;5070898;28;20059;-71
2023/11/28 02:14:19;;;;;;;4.22;2.42;;;1.40;99.90;;;;;;5066091;28;20048;-72
2023/11/28 02:16:45;;;;;;;3.92;2.72;;;1.30;99.90;;;;;;5066224;28;20061;-72
2023/11/28 02:19:11;;;;;;;6.38;2.35;;;1.40;99.90;;;;;;5055272;28;20071;-72
2023/11/28 02:21:37;;;;;;;3.15;2.40;;;1.40;99.90;;;;;;5080315;28;20491;-71
2023/11/28 02:24:04;;;;;;;3.00;2.17;;;1.60;99.90;;;;;;5064398;28;20044;-71
2023/11/28 02:26:30;;;;;;;4.57;2.50;;;1.40;99.90;;;;;;5059787;28;20105;-71
2023/11/28 02:28:57;;;;;;;4.75;2.25;;;1.40;99.90;;;;;;5085850;28;20079;-71
2023/11/28 02:31:23;;;;;;;3.97;2.40;;;1.30;99.90;;;;;;5071094;28;20044;-71
2023/11/28 02:33:49;;;;;;;5.80;2.28;;;1.30;99.90;;;;;;5054596;28;20094;-71
2023/11/28 02:36:15;;;;;;;3.63;2.33;;;1.30;99.90;;;;;;5070322;28;20044;-71
2023/11/28 02:38:41;;;;;;;4.68;2.42;;;1.30;99.90;;;;;;5069001;28;20044;-71
2023/11/28 02:41:07;;;;;;;5.38;2.30;;;1.30;99.90;;;;;;5087052;28;21050;-72
2023/11/28 02:43:33;;;;;;;3.40;2.22;;;1.20;99.90;;;;;;5085066;28;20040;-72
2023/11/28 02:45:58;;;;;;;3.38;2.00;;;1.20;99.90;;;;;;5080869;28;20135;-73
2023/11/28 02:48:24;;;;;;;5.10;2.42;;;1.20;99.90;;;;;;5079086;28;20032;-72
2023/11/28 02:50:50;;;;;;;4.75;2.30;;;1.20;99.90;;;;;;5082054;28;20127;-71
2023/11/28 02:53:19;;;;;;;4.38;2.60;;;1.20;99.90;;;;;;5077449;28;20486;-72
2023/11/28 02:55:45;;;;;;;5.38;2.33;;;1.20;99.90;;;;;;5064551;28;20487;-72
2023/11/28 02:58:11;;;;;;;3.67;2.00;;;1.20;99.90;;;;;;5094018;28;20060;-72
2023/11/28 03:00:37;;;;;;;3.20;2.35;;;1.20;99.90;;;;;;5077427;28;20036;-73
2023/11/28 03:03:03;;;;;;;3.30;1.80;;;1.20;99.90;;;;;;5062298;28;20505;-72
2023/11/28 03:05:31;;;;;;;4.50;2.20;;;1.20;99.90;;;;;;5069113;28;20132;-72
2023/11/28 03:07:56;;;;;;;3.65;1.80;;;1.20;99.90;;;;;;5070256;28;20052;-72
2023/11/28 03:10:22;;;;;;;3.65;2.15;;;1.20;99.90;;;;;;5077014;28;20048;-72
2023/11/28 03:12:48;;;;;;;4.53;2.10;;;1.20;99.90;;;;;;5076653;28;20644;-72
2023/11/28 03:15:14;;;;;;;2.97;2.00;;;1.20;99.90;;;;;;5073898;28;20486;-72
2023/11/28 03:17:40;;;;;;;4.47;2.67;;;1.20;99.90;;;;;;5079586;28;20599;-72
2023/11/28 03:20:07;;;;;;;4.40;2.40;;;1.20;99.90;;;;;;5073309;28;20533;-72
2023/11/28 03:22:33;;;;;;;4.37;2.80;;;1.20;99.90;;;;;;5076576;28;20052;-72
2023/11/28 03:25:12;;;;;;;4.17;2.43;;;1.20;99.90;;;;;;5073757;28;20044;-73
2023/11/28 03:27:38;;;;;;;4.65;2.95;;;1.20;99.90;;;;;;5067737;28;20260;-72
2023/11/28 03:30:04;;;;;;;4.05;2.50;;;1.20;99.90;;;;;;5079586;28;20140;-72
2023/11/28 03:32:30;;;;;;;4.03;2.75;;;1.30;99.90;;;;;;5063404;28;20556;-72
2023/11/28 03:34:56;;;;;;;5.72;2.55;;;1.20;99.90;;;;;;5078308;28;20051;-73
2023/11/28 03:37:26;;;;;;;5.23;2.90;;;1.30;99.90;;;;;;5073668;28;20044;-73
2023/11/28 03:39:52;;;;;;;4.28;2.53;;;1.20;99.90;;;;;;5073592;28;20052;-73
2023/11/28 03:42:18;;;;;;;4.95;2.60;;;1.30;99.90;;;;;;5066829;28;20056;-74
2023/11/28 03:44:44;;;;;;;4.40;2.87;;;1.20;99.90;;;;;;5056017;28;20052;-72
2023/11/28 03:47:10;;;;;;;5.10;2.88;;;1.20;99.90;;;;;;5065722;28;20202;-71
2023/11/28 03:49:36;;;;;;;4.28;2.78;;;1.30;99.90;;;;;;5076248;28;20069;-72
2023/11/28 03:52:02;;;;;;;4.97;2.92;;;1.20;99.90;;;;;;5068704;28;20315;-72
2023/11/28 03:54:27;;;;;;;5.77;3.30;;;1.30;99.90;;;;;;5081137;28;20049;-72
2023/11/28 03:56:53;;;;;;;5.57;3.07;;;1.30;99.90;;;;;;5071843;28;20059;-72
2023/11/28 03:59:19;;;;;;;6.00;3.08;;;1.40;99.90;;;;;;5068563;28;20045;-72
2023/11/28 04:01:45;;;;;;;5.05;3.17;;;1.40;99.90;;;;;;5054177;28;20462;-72
2023/11/28 04:04:11;;;;;;;6.05;3.40;;;1.50;99.90;;;;;;5076236;28;20487;-72
2023/11/28 04:06:36;;;;;;;5.97;3.58;;;1.40;99.90;;;;;;5077889;28;20148;-73
2023/11/28 04:09:03;;;;;;;6.18;3.28;;;1.50;99.90;;;;;;5080854;28;20044;-72
2023/11/28 04:11:29;;;;;;;4.28;3.17;;;1.50;99.90;;;;;;5056627;28;20041;-72
2023/11/28 04:13:55;;;;;;;5.50;3.08;;;1.50;99.90;;;;;;5056128;28;20564;-72
2023/11/28 04:16:21;;;;;;;4.85;2.78;;;1.60;99.90;;;;;;5056915;28;20033;-72
2023/11/28 04:18:52;;;;;;;6.82;3.38;;;1.70;99.90;;;;;;5073453;28;20055;-72
2023/11/28 04:21:22;;;;;;;3.88;2.60;;;1.80;99.90;;;;;;5053260;28;20124;-72
2023/11/28 04:23:48;;;;;;;4.47;2.35;;;1.80;99.90;;;;;;5058963;28;20058;-72
2023/11/28 04:26:14;;;;;;;2.72;2.10;;;1.90;99.90;;;;;;5065985;28;20036;-73
2023/11/28 04:28:40;;;;;;;4.63;2.67;;;2.00;99.90;;;;;;5067308;28;20059;-73
2023/11/28 04:31:06;;;;;;;4.38;2.25;;;2.00;99.90;;;;;;5078796;28;20059;-73
2023/11/28 04:33:31;;;;;;;3.67;2.00;;;1.90;99.90;;;;;;5077921;28;20305;-73
2023/11/28 04:35:57;;;;;;;5.27;2.67;;;2.00;99.90;;;;;;5082173;28;20051;-73
2023/11/28 04:38:23;;;;;;;4.50;2.70;;;1.90;99.90;;;;;;5077090;28;20044;-74
2023/11/28 04:40:52;;;;;;;6.32;2.92;;;2.00;99.90;;;;;;5054120;28;20040;-73
2023/11/28 04:43:18;;;;;;;3.57;2.50;;;1.90;99.90;;;;;;5056265;28;20110;-73
2023/11/28 04:45:44;;;;;;;4.68;2.50;;;2.00;99.90;;;;;;5083110;28;20060;-72
2023/11/28 04:48:10;;;;;;;5.20;2.58;;;2.00;99.90;;;;;;5068766;28;20040;-74
2023/11/28 04:50:36;;;;;;;4.18;2.95;;;2.00;99.90;;;;;;5051944;28;20052;-72
2023/11/28 04:53:01;;;;;;;6.10;3.40;;;2.00;99.90;;;;;;5073762;28;20427;-73
2023/11/28 04:55:27;;;;;;;6.07;3.83;;;2.00;99.90;;;;;;5076708;28;20072;-72
2023/11/28 04:57:53;;;;;;;6.22;4.25;;;2.00;99.90;;;;;;5073667;28;20044;-72
2023/11/28 05:00:19;;;;;;;5.43;3.78;;;2.00;99.90;;;;;;5075030;28;20532;-73
2023/11/28 05:02:44;;;;;;;6.22;4.15;;;2.00;99.90;;;;;;5065352;28;20395;-72
2023/11/28 05:05:10;;;;;;;8.68;5.07;;;2.00;99.90;;;;;;5057679;28;20075;-71
2023/11/28 05:07:36;;;;;;;8.00;5.15;;;2.00;99.90;;;;;;5068678;28;20047;-72
2023/11/28 05:10:03;;;;;;;7.07;5.18;;;2.00;99.90;;;;;;5056390;28;20055;-72
2023/11/28 05:12:31;;;;;;;6.45;5.00;;;2.00;99.90;;;;;;5077432;28;20056;-72
2023/11/28 05:14:57;;;;;;;9.57;5.30;;;1.90;99.90;;;;;;5073268;28;20105;-72
2023/11/28 05:17:22;;;;;;;6.80;5.30;;;1.90;99.90;;;;;;5061860;28;20056;-72
2023/11/28 05:19:48;;;;;;;7.28;5.55;;;1.80;99.90;;;;;;5082878;28;20575;-72
2023/11/28 05:22:14;;;;;;;6.78;5.07;;;1.80;99.90;;;;;;5084364;28;20071;-71
2023/11/28 05:24:39;;;;;;;8.60;5.72;;;1.80;99.90;;;;;;5081787;28;20044;-72
2023/11/28 05:27:05;;;;;;;7.93;5.18;;;1.80;99.90;;;;;;5070965;28;20100;-71
2023/11/28 05:29:31;;;;;;;6.45;4.63;;;1.80;99.90;;;;;;5084215;28;20051;-73
2023/11/28 05:31:57;;;;;;;7.63;4.65;;;1.80;99.90;;;;;;5078800;28;20055;-70
2023/11/28 05:34:23;;;;;;;6.80;4.43;;;1.80;99.90;;;;;;5064349;28;20143;-75
2023/11/28 05:36:50;;;;;;;6.72;4.80;;;1.70;99.90;;;;;;5073197;28;20409;-70
2023/11/28 05:39:16;;;;;;;7.28;4.40;;;1.70;99.90;;;;;;5061084;28;20054;-70
2023/11/28 05:41:41;;;;;;;6.88;5.03;;;1.60;99.90;;;;;;5056417;28;20127;-70
2023/11/28 05:44:07;;;;;;;8.52;5.22;;;1.70;99.90;;;;;;5087727;28;20499;-70
2023/11/28 05:46:33;;;;;;;7.28;5.50;;;1.70;99.90;;;;;;5077538;28;20093;-70
2023/11/28 05:49:00;;;;;;;8.52;6.10;;;1.60;99.90;;;;;;5069079;28;20098;-69
2023/11/28 05:51:26;;;;;;;7.18;4.97;;;1.60;99.90;;;;;;5066538;28;20602;-70
2023/11/28 05:53:52;;;;;;;7.65;5.45;;;1.60;99.90;;;;;;5083741;28;20078;-72
2023/11/28 05:56:18;;;;;;;8.32;5.50;;;1.60;99.90;;;;;;5087611;28;20104;-72
2023/11/28 05:58:44;;;;;;;6.95;5.05;;;1.60;99.90;;;;;;5063981;28;20562;-72
2023/11/28 06:01:14;;;;;;;5.90;4.60;;;1.60;99.90;;;;;;5081594;28;20048;-72
2023/11/28 06:03:40;;;;;;;7.28;4.95;;;1.70;99.90;;;;;;5066533;28;20371;-72
2023/11/28 06:06:06;;;;;;;7.28;4.68;;;1.60;99.90;;;;;;5087168;28;20097;-71
2023/11/28 06:08:32;;;;;;;6.57;4.53;;;1.70;99.90;;;;;;5079577;28;20063;-71
2023/11/28 06:10:58;;;;;;;8.75;4.57;;;1.70;99.90;;;;;;5085967;28;20417;-71
2023/11/28 06:13:23;;;;;;;7.00;4.43;;;1.70;99.90;;;;;;5081959;28;20043;-71
2023/11/28 06:15:49;;;;;;;7.22;4.95;;;1.70;99.90;;;;;;5075047;28;20713;-71
2023/11/28 06:18:15;;;;;;;7.88;4.30;;;1.70;99.90;;;;;;5067586;28;20614;-71
2023/11/28 06:20:41;;;;;;;8.52;4.68;;;1.70;99.90;;;;;;5085883;28;20043;-71
2023/11/28 06:23:07;;;;;;;9.02;4.22;;;1.70;99.90;;;;;;5086228;28;20044;-71
2023/11/28 06:25:33;;;;;;;5.95;4.70;;;1.70;99.90;;;;;;5092515;28;20046;-72
2023/11/28 06:27:59;;;;;;;9.05;4.65;;;1.70;99.90;;;;;;5088713;28;20047;-72
2023/11/28 06:30:24;;;;;;;7.00;5.03;;;1.70;99.90;;;;;;5087818;28;20495;-71
2023/11/28 06:32:51;;;;;;;6.45;4.03;;;1.70;99.90;;;;;;5067311;28;20070;-71
2023/11/28 06:35:17;;;;;;;7.40;4.95;;;1.70;99.90;;;;;;5062706;28;20041;-72
2023/11/28 06:37:43;;;;;;;6.47;4.78;;;1.70;99.90;;;;;;5098178;28;20035;-72
2023/11/28 06:40:09;;;;;;;7.55;4.95;;;1.60;99.90;;;;;;5084462;28;20044;-73
2023/11/28 06:42:35;;;;;;;8.55;5.53;;;1.60;99.90;;;;;;5082990;28;20044;-73
2023/11/28 06:45:02;;;;;;;7.60;4.95;;;1.60;99.90;;;;;;5084374;28;20045;-73
2023/11/28 06:47:29;;;;;;;7.30;4.88;;;1.60;99.90;;;;;;5062391;28;20604;-71
2023/11/28 06:49:56;;;;;;;7.32;4.45;;;1.60;99.90;;;;;;5069687;28;20113;-71
2023/11/28 06:52:22;;;;;;;7.35;5.25;;;1.60;99.90;;;;;;5070993;28;20085;-72
2023/11/28 06:54:51;;;;;;;9.65;4.72;;;1.60;99.90;;;;;;5064752;28;20048;-72
2023/11/28 06:57:17;;;;;;;7.88;5.10;;;1.60;99.90;;;;;;5070004;28;20036;-72
2023/11/28 06:59:43;;;;;;;6.43;4.85;;;1.60;99.90;;;;;;5066659;28;20136;-72
2023/11/28 07:02:09;;;;;;;7.45;4.50;;;1.60;99.90;;;;;;5065710;28;20046;-72
2023/11/28 07:04:35;;;;;;;6.65;4.57;;;1.70;99.90;;;;;;5068410;28;20046;-72
2023/11/28 07:07:00;;;;;;;6.38;4.38;;;1.60;99.90;;;;;;5079519;28;20490;-72
2023/11/28 07:09:26;;;;;;;7.00;4.13;;;1.60;99.90;;;;;;5079705;28;20048;-74
2023/11/28 07:11:55;;;;;;;6.85;4.45;;;1.50;99.90;;;;;;5071611;28;20178;-73
2023/11/28 07:14:21;;;;;;;7.60;4.65;;;1.70;99.90;;;;;;5081871;28;20044;-73
2023/11/28 07:16:49;;;;;;;9.00;5.38;;;1.70;99.90;;;;;;5072835;28;20050;-74
2023/11/28 07:19:18;;;;;;;8.65;5.20;;;1.60;99.90;;;;;;5071055;28;20043;-72
2023/11/28 07:21:44;;;;;;;8.45;5.50;;;1.70;99.90;;;;;;5084033;28;20048;-73
2023/11/28 07:24:10;;;;;;;7.80;4.95;;;1.70;99.90;;;;;;5083424;28;20446;-73
2023/11/28 07:26:36;;;;;;;8.50;5.30;;;1.70;99.90;;;;;;5067085;28;20071;-72
2023/11/28 07:29:08;;;;;;;7.82;4.78;;;1.70;99.90;;;;;;5082340;28;20051;-72
2023/11/28 07:31:33;;;;;;;7.95;5.13;;;1.70;99.90;;;;;;5078670;28;20043;-73
2023/11/28 07:33:59;;;;;;;7.70;5.05;;;1.70;99.90;;;;;;5076537;28;20460;-73
2023/11/28 07:36:25;;;;;;;11.40;6.00;;;1.70;99.90;;;;;;5069907;28;20043;-73
2023/11/28 07:38:51;;;;;;;8.02;5.22;;;1.80;99.90;;;;;;5080698;28;20039;-74
2023/11/28 07:41:17;;;;;;;6.32;5.22;;;1.80;99.90;;;;;;5079221;28;20067;-73
2023/11/28 07:43:44;;;;;;;8.30;5.22;;;1.80;99.90;;;;;;5085954;28;20811;-72
2023/11/28 07:46:10;;;;;;;11.13;5.63;;;1.80;99.90;;;;;;5090871;28;20047;-72
2023/11/28 07:48:36;;;;;;;8.10;5.20;;;1.80;99.90;;;;;;5080706;28;20055;-72
2023/11/28 07:51:03;;;;;;;10.23;5.55;;;1.80;99.90;;;;;;5087541;28;20582;-72
2023/11/28 07:53:28;;;;;;;8.68;4.85;;;1.80;99.90;;;;;;5071994;28;20043;-73
2023/11/28 07:55:54;;;;;;;7.75;4.82;;;1.80;99.90;;;;;;5077689;28;20145;-72
2023/11/28 07:58:20;;;;;;;7.78;4.90;;;1.80;99.90;;;;;;5070272;28;20047;-73
2023/11/28 08:00:45;;;;;;;7.63;4.82;;;1.90;99.90;;;;;;5079894;28;20118;-73
2023/11/28 08:03:11;;;;;;;9.25;5.00;;;1.80;99.90;;;;;;5069132;28;20300;-73
2023/11/28 08:05:37;;;;;;;7.22;5.28;;;1.80;99.90;;;;;;5074446;28;20623;-72
2023/11/28 08:08:03;;;;;;;7.13;5.85;;;1.90;99.90;;;;;;5083475;28;20056;-73
2023/11/28 08:10:29;;;;;;;6.60;5.10;;;1.90;99.90;;;;;;5080886;28;20463;-74
2023/11/28 08:12:55;;;;;;;7.00;4.78;;;1.90;99.90;;;;;;5079420;28;20032;-74
2023/11/28 08:15:21;;;;;;;8.07;4.75;;;1.90;99.90;;;;;;5067615;28;20040;-73
2023/11/28 08:17:47;;;;;;;8.65;5.20;;;1.90;99.90;;;;;;5066877;28;20555;-74
2023/11/28 08:20:12;;;;;;;7.18;4.50;;;2.00;99.90;;;;;;5064948;28;20048;-74
2023/11/28 08:22:38;;;;;;;7.72;4.50;;;2.00;99.90;;;;;;5078743;28;20491;-73
2023/11/28 08:25:04;;;;;;;7.75;4.75;;;2.00;99.90;;;;;;5077979;28;20767;-73
2023/11/28 08:27:30;;;;;;;7.97;4.38;;;2.00;99.90;;;;;;5083812;28;20477;-73
2023/11/28 08:29:56;;;;;;;6.45;4.38;;;2.10;99.90;;;;;;5066132;28;20040;-73
2023/11/28 08:32:22;;;;;;;5.75;4.22;;;2.00;99.90;;;;;;5066116;28;20040;-71
2023/11/28 08:34:48;;;;;;;7.15;4.43;;;2.00;99.90;;;;;;5079788;28;20063;-72
2023/11/28 08:37:13;;;;;;;6.55;4.50;;;2.00;99.90;;;;;;5082092;28;20088;-72
2023/11/28 08:39:39;;;;;;;8.10;4.70;;;2.10;99.90;;;;;;5064092;28;20044;-72
2023/11/28 08:42:06;;;;;;;6.45;4.32;;;2.00;99.90;;;;;;5083137;28;20043;-72
2023/11/28 08:44:32;;;;;;;9.75;5.72;;;2.00;99.90;;;;;;5086289;28;20039;-73
2023/11/28 08:47:01;;;;;;;7.30;4.65;;;2.00;99.90;;;;;;5086253;28;20406;-72
2023/11/28 08:49:26;;;;;;;7.72;5.05;;;1.90;99.90;;;;;;5081318;28;20048;-72
2023/11/28 08:51:53;;;;;;;7.82;5.13;;;1.90;99.90;;;;;;5063921;28;20040;-72
2023/11/28 08:54:18;;;;;;;6.40;4.90;;;1.90;99.90;;;;;;5080164;28;20055;-72
2023/11/28 08:56:44;;;;;;;5.85;4.40;;;1.90;99.90;;;;;;5082731;28;20497;-72
2023/11/28 08:59:10;;;;;;;9.63;5.18;;;1.90;99.90;;;;;;5061538;28;20132;-72
2023/11/28 09:01:36;;;;;;;6.95;5.22;;;1.90;99.90;;;;;;5073180;28;20052;-73
2023/11/28 09:04:02;;;;;;;6.68;4.88;;;1.90;99.90;;;;;;5068404;28;20201;-72
2023/11/28 09:06:28;;;;;;;7.28;5.35;;;1.90;99.90;;;;;;5081305;28;20035;-72
2023/11/28 09:08:54;;;;;;;7.32;5.15;;;1.90;99.90;;;;;;5085691;28;20104;-72
2023/11/28 09:11:19;;;;;;;8.15;5.38;;;1.90;99.90;;;;;;5066315;28;20985;-73
2023/11/28 09:13:45;;;;;;;9.07;5.35;;;1.90;99.90;;;;;;5088798;28;20268;-73
2023/11/28 09:16:12;;;;;;;6.55;5.30;;;1.90;99.90;;;;;;5078278;28;20040;-73
2023/11/28 09:18:39;;;;;;;7.63;4.93;;;1.90;99.90;;;;;;5082974;28;20054;-73
2023/11/28 09:21:05;;;;;;;7.97;5.35;;;1.90;99.90;;;;;;5081183;28;20044;-73
2023/11/28 09:23:31;;;;;;;9.80;5.63;;;1.90;99.90;;;;;;5079794;28;20048;-73
2023/11/28 09:25:57;;;;;;;8.55;5.40;;;1.90;99.90;;;;;;5067187;28;20033;-72
2023/11/28 09:28:23;;;;;;;7.15;5.53;;;1.90;99.90;;;;;;5077628;28;20380;-72
2023/11/28 09:30:48;;;;;;;7.22;5.13;;;1.90;99.90;;;;;;5078425;28;20049;-72
2023/11/28 09:33:15;;;;;;;8.30;5.43;;;1.90;99.90;;;;;;5084237;28;20047;-72
2023/11/28 09:35:41;;;;;;;7.22;5.68;;;1.90;99.90;;;;;;5061801;28;20032;-72
2023/11/28 09:38:07;;;;;;;10.15;5.90;;;2.00;99.90;;;;;;5083079;28;20075;-73
2023/11/28 09:40:33;;;;;;;6.82;5.05;;;2.00;99.90;;;;;;5061868;28;20044;-73
2023/11/28 09:43:02;;;;;;;9.05;5.47;;;2.10;99.90;;;;;;5066918;28;20051;-72
2023/11/28 09:45:28;;;;;;;7.75;5.00;;;2.10;99.90;;;;;;5079638;28;20513;-72
2023/11/28 09:47:58;;;;;;;7.03;5.38;;;2.20;99.90;;;;;;5079234;28;20044;-72
2023/11/28 09:50:25;;;;;;;7.80;4.72;;;2.20;99.90;;;;;;5073706;28;20144;-72
2023/11/28 09:52:53;;;;;;;6.05;4.43;;;2.20;99.90;;;;;;5075683;28;20057;-72
2023/11/28 09:55:20;;;;;;;11.30;5.35;;;2.30;99.90;;;;;;5081700;28;20062;-72
2023/11/28 09:57:47;;;;;;;7.03;5.18;;;2.30;99.90;;;;;;5083611;28;20039;-72
2023/11/28 10:00:19;;;;;;;7.10;5.03;;;2.30;99.90;;;;;;5074960;28;20180;-72
2023/11/28 10:02:53;;;;;;;6.40;4.60;;;2.30;99.90;;;;;;5082120;28;20108;-72
2023/11/28 10:05:19;;;;;;;6.45;5.00;;;2.30;99.90;;;;;;5064161;28;20435;-72
2023/11/28 10:07:48;;;;;;;7.18;5.20;;;2.20;99.90;;;;;;5075977;28;20052;-72
2023/11/28 10:10:18;;;;;;;6.80;5.07;;;2.20;99.90;;;;;;5060381;28;20056;-74
2023/11/28 10:12:44;;;;;;;8.38;4.93;;;2.30;99.90;;;;;;5078020;28;20059;-72
2023/11/28 10:15:11;;;;;;;7.88;4.53;;;2.20;99.90;;;;;;5080743;28;20056;-73
2023/11/28 10:17:37;;;;;;;5.97;4.18;;;2.20;99.90;;;;;;5080438;28;20517;-73
2023/11/28 10:20:08;;;;;;;6.75;4.25;;;2.20;99.90;;;;;;5064333;28;20456;-72
2023/11/28 10:22:34;;;;;;;;;;;2.20;99.90;;;;;;5063378;28;20135;-72
2023/11/28 10:25:10;;;;;;;6.30;4.10;;;2.20;99.90;;;;;;5093873;28;20022;-73
2023/11/28 10:27:42;;;;;;;6.97;4.05;;;2.30;99.90;;;;;;5063251;28;20046;-73
2023/11/28 10:30:13;;;;;;;6.97;4.10;;;2.30;99.90;;;;;;5060631;28;20060;-74
2023/11/28 10:32:39;;;;;;;9.30;4.03;;;2.40;99.90;;;;;;5087357;28;20044;-72
2023/11/28 10:35:06;;;;;;;7.82;4.63;;;2.50;99.90;;;;;;5075523;28;20384;-72
2023/11/28 10:37:37;;;;;;;5.88;4.20;;;2.50;99.90;;;;;;5067010;28;20440;-72
2023/11/28 10:40:05;;;;;;;5.75;4.40;;;2.50;99.90;;;;;;5068352;28;20402;-72
2023/11/28 10:42:31;;;;;;;5.85;4.10;;;2.50;99.90;;;;;;5068258;28;20055;-72
2023/11/28 10:44:59;;;;;;;7.80;4.22;;;2.60;99.90;;;;;;5081845;28;20044;-72
2023/11/28 10:47:30;;;;;;;7.22;5.10;;;2.50;99.90;;;;;;5061289;28;20043;-73
2023/11/28 10:49:56;;;;;;;7.68;4.40;;;2.60;99.90;;;;;;5077934;28;20101;-73
2023/11/28 10:52:30;;;;;;;6.13;3.58;;;2.60;99.90;;;;;;5085419;28;20442;-73
2023/11/28 10:54:57;;;;;;;5.70;3.70;;;2.60;99.90;;;;;;5080954;28;20071;-74
2023/11/28 10:57:30;;;;;;;5.07;3.60;;;2.60;99.90;;;;;;5091821;28;20091;-73
2023/11/28 11:00:08;;;;;;;8.85;4.07;;;2.60;99.90;;;;;;5079858;28;20038;-72
2023/11/28 11:02:35;;;;;;;7.25;4.00;;;2.60;99.90;;;;;;5072700;28;20054;-72
2023/11/28 11:05:06;;;;;;;7.55;3.78;;;2.50;99.90;;;;;;5072243;28;20040;-74
2023/11/28 11:07:34;;;;;;;8.48;3.90;;;2.50;99.90;;;;;;5084633;28;20094;-73
2023/11/28 11:10:03;;;;;;;5.38;3.20;;;2.50;99.90;;;;;;5067826;28;20099;-73
2023/11/28 11:12:31;;;;;;;5.35;3.60;;;2.50;99.90;;;;;;5092815;28;20116;-73
2023/11/28 11:15:23;;;;;;;6.22;3.45;;;2.50;99.90;;;;;;5082898;28;20040;-73
2023/11/28 11:17:49;;;;;;;5.70;3.45;;;2.50;99.90;;;;;;5083069;28;20511;-73
2023/11/28 11:20:17;;;;;;;5.25;3.00;;;2.50;99.90;;;;;;5070210;28;20040;-72
2023/11/28 11:22:48;;;;;;;4.65;2.95;;;2.50;99.90;;;;;;5066981;28;20147;-74
2023/11/28 11:25:14;;;;;;;5.80;3.45;;;2.60;99.90;;;;;;5082893;28;20048;-72
2023/11/28 11:27:40;;;;;;;6.93;3.30;;;2.50;99.90;;;;;;5066385;28;20036;-72
2023/11/28 11:30:08;;;;;;;4.28;3.00;;;2.50;99.90;;;;;;5065759;28;20031;-72
2023/11/28 11:32:34;;;;;;;5.70;3.47;;;2.60;99.90;;;;;;5077540;28;20040;-74
2023/11/28 11:35:04;;;;;;;6.22;3.65;;;2.50;99.90;;;;;;5075925;28;20039;-74
2023/11/28 11:37:32;;;;;;;9.15;3.83;;;2.60;99.90;;;;;;5084235;28;20131;-74
2023/11/28 11:40:02;;;;;;;5.03;3.28;;;2.60;99.90;;;;;;5081355;28;20036;-74
2023/11/28 11:42:31;;;;;;;6.28;3.42;;;2.60;99.90;;;;;;5088835;28;20048;-74
2023/11/28 11:45:05;;;;;;;6.35;3.33;;;2.60;99.90;;;;;;5067772;28;20041;-72
2023/11/28 11:47:32;;;;;;;4.63;3.15;;;2.60;99.90;;;;;;5091124;28;20036;-72
2023/11/28 11:49:59;;;;;;;4.65;3.30;;;2.50;99.90;;;;;;5081167;28;20330;-72
2023/11/28 11:52:27;;;;;;;5.13;2.78;;;2.50;99.90;;;;;;5081819;28;20770;-72
2023/11/28 11:55:09;;;;;;;5.13;3.08;;;2.50;99.90;;;;;;5081178;28;20807;-72
2023/11/28 11:57:39;;;;;;;5.53;2.80;;;2.50;99.90;;;;;;5074921;28;20042;-73
2023/11/28 12:00:10;;;;;;;7.28;2.65;;;2.40;99.90;;;;;;5081101;28;20040;-74
2023/11/28 12:02:41;;;;;;;3.53;2.50;;;2.40;99.90;;;;;;5083865;28;20048;-74
2023/11/28 12:05:11;;;;;;;5.70;3.15;;;2.50;99.90;;;;;;5072294;28;20083;-74
2023/11/28 12:07:40;;;;;;;5.35;3.13;;;2.50;99.90;;;;;;5071055;28;20051;-74
2023/11/28 12:10:11;;;;;;;5.40;2.92;;;2.60;99.90;;;;;;5080424;28;20040;-73
2023/11/28 12:12:39;;;;;;;6.45;2.92;;;2.60;99.90;;;;;;5079771;28;20080;-74
2023/11/28 12:15:05;;;;;;;4.00;2.78;;;2.60;99.90;;;;;;5085553;28;20498;-74
2023/11/28 12:17:31;;;;;;;6.22;4.43;;;2.60;99.90;;;;;;5063788;28;20056;-74
2023/11/28 12:19:57;;;;;;;4.40;2.95;;;2.60;99.90;;;;;;5087238;28;20117;-74
2023/11/28 12:22:23;;;;;;;4.90;3.17;;;2.60;99.90;;;;;;5085223;28;20047;-72
2023/11/28 12:24:49;;;;;;;5.47;3.25;;;2.70;99.90;;;;;;5084313;28;20040;-74
2023/11/28 12:27:15;;;;;;;4.75;2.90;;;2.70;99.90;;;;;;5067362;28;20092;-72
2023/11/28 12:29:41;;;;;;;4.68;3.28;;;2.60;99.90;;;;;;5072329;28;20035;-73
2023/11/28 12:32:07;;;;;;;5.47;3.40;;;2.60;99.90;;;;;;5066793;28;20477;-72
2023/11/28 12:34:34;;;;;;;6.70;3.10;;;2.60;99.90;;;;;;5062591;28;20086;-72
2023/11/28 12:37:02;;;;;;;5.70;3.05;;;2.60;99.90;;;;;;5085021;28;20119;-74
2023/11/28 12:39:29;;;;;;;3.58;2.67;;;2.60;99.90;;;;;;5079937;28;20323;-74
2023/11/28 12:41:56;;;;;;;5.28;3.03;;;2.60;99.90;;;;;;5067345;28;20048;-74
2023/11/28 12:44:31;;;;;;;3.22;2.60;;;2.60;99.90;;;;;;5064059;28;20394;-74
2023/11/28 12:46:58;;;;;;;5.55;3.15;;;2.60;99.90;;;;;;5085664;28;20039;-74
2023/11/28 12:49:25;;;;;;;4.45;2.83;;;2.70;99.90;;;;;;5081389;28;20138;-72
2023/11/28 12:51:55;;;;;;;6.28;2.90;;;2.70;99.90;;;;;;5082168;28;20042;-73
2023/11/28 12:54:21;;;;;;;6.63;2.75;;;2.60;99.90;;;;;;5069523;28;20044;-74